sensor_id;sensor_type;location;lat;lon;timestamp;temperature;humidity
59311;DHT22;45078;51.654;21.250;2023-08-24T00:00:13;13.20;99.90
59311;DHT22;45078;51.654;21.250;2023-08-24T00:02:39;13.20;99.90
59311;DHT22;45078;51.654;21.250;2023-08-24T00:05:05;13.20;99.90
59311;DHT22;45078;51.654;21.250;2023-08-24T00:07:31;13.20;99.90
59311;DHT22;45078;51.654;21.250;2023-08-24T00:09:58;13.20;99.90
59311;DHT22;45078;51.654;21.250;2023-08-24T00:12:24;13.20;99.90
59311;DHT22;45078;51.654;21.250;2023-08-24T00:14:49;13.20;99.90
59311;DHT22;45078;51.654;21.250;2023-08-24T00:17:15;13.20;99.90
59311;DHT22;45078;51.654;21.250;2023-08-24T00:19:41;13.20;99.90
59311;DHT22;45078;51.654;21.250;2023-08-24T00:22:06;13.30;99.90
59311;DHT22;45078;51.654;21.250;2023-08-24T00:24:32;13.30;99.90
59311;DHT22;45078;51.654;21.250;2023-08-24T00:26:58;13.30;99.90
59311;DHT22;45078;51.654;21.250;2023-08-24T00:29:23;13.40;99.90
59311;DHT22;45078;51.654;21.250;2023-08-24T00:31:49;13.40;99.90
59311;DHT22;45078;51.654;21.250;2023-08-24T00:34:15;13.40;99.90
59311;DHT22;45078;51.654;21.250;2023-08-24T00:36:41;13.50;99.90
59311;DHT22;45078;51.654;21.250;2023-08-24T00:39:06;13.40;99.90
59311;DHT22;45078;51.654;21.250;2023-08-24T00:41:32;13.40;99.90
59311;DHT22;45078;51.654;21.250;2023-08-24T00:43:58;13.40;99.90
59311;DHT22;45078;51.654;21.250;2023-08-24T00:46:24;13.50;99.90
59311;DHT22;45078;51.654;21.250;2023-08-24T00:48:53;13.50;99.90
59311;DHT22;45078;51.654;21.250;2023-08-24T00:51:23;13.60;99.90
59311;DHT22;45078;51.654;21.250;2023-08-24T00:53:49;13.60;99.90
59311;DHT22;45078;51.654;21.250;2023-08-24T00:56:15;13.60;99.90
59311;DHT22;45078;51.654;21.250;2023-08-24T00:58:41;13.60;99.90
59311;DHT22;45078;51.654;21.250;2023-08-24T01:01:08;13.60;99.90
59311;DHT22;45078;51.654;21.250;2023-08-24T01:03:34;13.60;99.90
59311;DHT22;45078;51.654;21.250;2023-08-24T01:06:00;13.60;99.90
59311;DHT22;45078;51.654;21.250;2023-08-24T01:08:25;13.70;99.90
59311;DHT22;45078;51.654;21.250;2023-08-24T01:11:05;13.70;99.90
59311;DHT22;45078;51.654;21.250;2023-08-24T01:16:25;13.80;99.90
59311;DHT22;45078;51.654;21.250;2023-08-24T01:18:57;13.90;99.90
59311;DHT22;45078;51.654;21.250;2023-08-24T01:21:28;13.90;99.90
59311;DHT22;45078;51.654;21.250;2023-08-24T01:24:14;13.90;99.90
59311;DHT22;45078;51.654;21.250;2023-08-24T01:26:44;13.90;99.90
59311;DHT22;45078;51.654;21.250;2023-08-24T01:29:10;13.90;99.90
59311;DHT22;45078;51.654;21.250;2023-08-24T01:31:36;13.90;99.90
59311;DHT22;45078;51.654;21.250;2023-08-24T01:34:01;13.90;99.90
59311;DHT22;45078;51.654;21.250;2023-08-24T01:36:27;13.90;99.90
59311;DHT22;45078;51.654;21.250;2023-08-24T01:39:34;14.00;99.90
59311;DHT22;45078;51.654;21.250;2023-08-24T01:42:02;14.00;99.90
59311;DHT22;45078;51.654;21.250;2023-08-24T01:44:34;14.00;99.90
59311;DHT22;45078;51.654;21.250;2023-08-24T01:47:04;14.00;99.90
59311;DHT22;45078;51.654;21.250;2023-08-24T01:49:31;14.00;99.90
59311;DHT22;45078;51.654;21.250;2023-08-24T01:51:58;14.00;99.90
59311;DHT22;45078;51.654;21.250;2023-08-24T01:54:24;14.10;99.90
59311;DHT22;45078;51.654;21.250;2023-08-24T01:56:50;14.10;99.90
59311;DHT22;45078;51.654;21.250;2023-08-24T01:59:16;14.00;99.90
59311;DHT22;45078;51.654;21.250;2023-08-24T02:01:41;14.00;99.90
59311;DHT22;45078;51.654;21.250;2023-08-24T02:04:07;14.00;99.90
59311;DHT22;45078;51.654;21.250;2023-08-24T02:06:33;14.00;99.90
59311;DHT22;45078;51.654;21.250;2023-08-24T02:08:58;14.10;99.90
59311;DHT22;45078;51.654;21.250;2023-08-24T02:11:25;14.10;99.90
59311;DHT22;45078;51.654;21.250;2023-08-24T02:16:52;14.10;99.90
59311;DHT22;45078;51.654;21.250;2023-08-24T02:19:18;14.20;99.90
59311;DHT22;45078;51.654;21.250;2023-08-24T02:21:44;14.20;99.90
59311;DHT22;45078;51.654;21.250;2023-08-24T02:24:10;14.20;99.90
59311;DHT22;45078;51.654;21.250;2023-08-24T02:26:35;14.20;99.90
59311;DHT22;45078;51.654;21.250;2023-08-24T02:29:01;14.20;99.90
59311;DHT22;45078;51.654;21.250;2023-08-24T02:31:27;14.20;99.90
59311;DHT22;45078;51.654;21.250;2023-08-24T02:33:53;14.30;99.90
59311;DHT22;45078;51.654;21.250;2023-08-24T02:36:19;14.30;99.90
59311;DHT22;45078;51.654;21.250;2023-08-24T02:38:44;14.30;99.90
59311;DHT22;45078;51.654;21.250;2023-08-24T02:41:10;14.30;99.90
59311;DHT22;45078;51.654;21.250;2023-08-24T02:43:36;14.30;99.90
59311;DHT22;45078;51.654;21.250;2023-08-24T02:46:03;14.20;99.90
59311;DHT22;45078;51.654;21.250;2023-08-24T02:48:30;14.20;99.90
59311;DHT22;45078;51.654;21.250;2023-08-24T02:51:00;14.10;99.90
59311;DHT22;45078;51.654;21.250;2023-08-24T02:53:27;14.00;99.90
59311;DHT22;45078;51.654;21.250;2023-08-24T02:55:53;14.10;99.90
59311;DHT22;45078;51.654;21.250;2023-08-24T02:58:19;14.00;99.90
59311;DHT22;45078;51.654;21.250;2023-08-24T03:00:45;14.00;99.90
59311;DHT22;45078;51.654;21.250;2023-08-24T03:03:15;14.10;99.90
59311;DHT22;45078;51.654;21.250;2023-08-24T03:06:09;14.10;99.90
59311;DHT22;45078;51.654;21.250;2023-08-24T03:08:35;14.00;99.90
59311;DHT22;45078;51.654;21.250;2023-08-24T03:11:01;14.00;99.90
59311;DHT22;45078;51.654;21.250;2023-08-24T03:13:28;14.00;99.90
59311;DHT22;45078;51.654;21.250;2023-08-24T03:15:54;13.90;99.90
59311;DHT22;45078;51.654;21.250;2023-08-24T03:18:20;13.80;99.90
59311;DHT22;45078;51.654;21.250;2023-08-24T03:20:47;13.80;99.90
59311;DHT22;45078;51.654;21.250;2023-08-24T03:23:14;13.70;99.90
59311;DHT22;45078;51.654;21.250;2023-08-24T03:25:41;13.70;99.90
59311;DHT22;45078;51.654;21.250;2023-08-24T03:28:08;13.60;99.90
59311;DHT22;45078;51.654;21.250;2023-08-24T03:30:39;13.70;99.90
59311;DHT22;45078;51.654;21.250;2023-08-24T03:33:05;13.70;99.90
59311;DHT22;45078;51.654;21.250;2023-08-24T03:35:32;13.70;99.90
59311;DHT22;45078;51.654;21.250;2023-08-24T03:37:58;13.70;99.90
59311;DHT22;45078;51.654;21.250;2023-08-24T03:40:23;13.60;99.90
59311;DHT22;45078;51.654;21.250;2023-08-24T03:42:49;13.50;99.90
59311;DHT22;45078;51.654;21.250;2023-08-24T03:45:15;13.50;99.90
59311;DHT22;45078;51.654;21.250;2023-08-24T03:47:41;13.40;99.90
59311;DHT22;45078;51.654;21.250;2023-08-24T03:50:07;13.40;99.90
59311;DHT22;45078;51.654;21.250;2023-08-24T03:52:33;13.40;99.90
59311;DHT22;45078;51.654;21.250;2023-08-24T03:54:58;13.40;99.90
59311;DHT22;45078;51.654;21.250;2023-08-24T03:57:24;13.30;99.90
59311;DHT22;45078;51.654;21.250;2023-08-24T03:59:50;13.30;99.90
59311;DHT22;45078;51.654;21.250;2023-08-24T04:02:16;13.30;99.90
59311;DHT22;45078;51.654;21.250;2023-08-24T04:04:43;13.30;99.90
59311;DHT22;45078;51.654;21.250;2023-08-24T04:07:09;13.30;99.90
59311;DHT22;45078;51.654;21.250;2023-08-24T04:09:35;13.30;99.90
59311;DHT22;45078;51.654;21.250;2023-08-24T04:12:00;13.30;99.90
59311;DHT22;45078;51.654;21.250;2023-08-24T04:14:26;13.30;99.90
59311;DHT22;45078;51.654;21.250;2023-08-24T04:16:52;13.30;99.90
59311;DHT22;45078;51.654;21.250;2023-08-24T04:19:18;13.30;99.90
59311;DHT22;45078;51.654;21.250;2023-08-24T04:21:43;13.30;99.90
59311;DHT22;45078;51.654;21.250;2023-08-24T04:24:09;13.40;99.90
59311;DHT22;45078;51.654;21.250;2023-08-24T04:26:35;13.40;99.90
59311;DHT22;45078;51.654;21.250;2023-08-24T04:29:00;13.40;99.90
59311;DHT22;45078;51.654;21.250;2023-08-24T04:31:26;13.50;99.90
59311;DHT22;45078;51.654;21.250;2023-08-24T04:33:52;13.50;99.90
59311;DHT22;45078;51.654;21.250;2023-08-24T04:36:17;13.60;99.90
59311;DHT22;45078;51.654;21.250;2023-08-24T04:38:43;13.70;99.90
59311;DHT22;45078;51.654;21.250;2023-08-24T04:41:09;13.80;99.90
59311;DHT22;45078;51.654;21.250;2023-08-24T04:43:36;13.90;99.90
59311;DHT22;45078;51.654;21.250;2023-08-24T04:46:02;14.00;99.90
59311;DHT22;45078;51.654;21.250;2023-08-24T04:48:28;14.10;99.90
59311;DHT22;45078;51.654;21.250;2023-08-24T04:50:58;14.30;99.90
59311;DHT22;45078;51.654;21.250;2023-08-24T04:53:25;14.40;99.90
59311;DHT22;45078;51.654;21.250;2023-08-24T04:55:51;14.50;99.90
59311;DHT22;45078;51.654;21.250;2023-08-24T04:58:17;14.70;99.90
59311;DHT22;45078;51.654;21.250;2023-08-24T05:00:43;14.80;99.90
59311;DHT22;45078;51.654;21.250;2023-08-24T05:03:09;15.00;99.90
59311;DHT22;45078;51.654;21.250;2023-08-24T05:05:36;15.10;99.90
59311;DHT22;45078;51.654;21.250;2023-08-24T05:08:04;15.30;99.90
59311;DHT22;45078;51.654;21.250;2023-08-24T05:10:32;15.40;99.90
59311;DHT22;45078;51.654;21.250;2023-08-24T05:12:59;15.60;99.90
59311;DHT22;45078;51.654;21.250;2023-08-24T05:15:24;15.70;99.90
59311;DHT22;45078;51.654;21.250;2023-08-24T05:17:50;15.80;99.90
59311;DHT22;45078;51.654;21.250;2023-08-24T05:20:23;16.00;99.90
59311;DHT22;45078;51.654;21.250;2023-08-24T05:22:49;16.20;99.90
59311;DHT22;45078;51.654;21.250;2023-08-24T05:25:14;16.40;99.90
59311;DHT22;45078;51.654;21.250;2023-08-24T05:27:42;16.60;99.90
59311;DHT22;45078;51.654;21.250;2023-08-24T05:30:08;16.70;99.90
59311;DHT22;45078;51.654;21.250;2023-08-24T05:32:35;16.90;99.90
59311;DHT22;45078;51.654;21.250;2023-08-24T05:35:05;17.10;99.90
59311;DHT22;45078;51.654;21.250;2023-08-24T05:37:32;17.40;99.90
59311;DHT22;45078;51.654;21.250;2023-08-24T05:39:58;17.50;99.90
59311;DHT22;45078;51.654;21.250;2023-08-24T05:42:24;17.70;99.90
59311;DHT22;45078;51.654;21.250;2023-08-24T05:44:50;17.90;99.90
59311;DHT22;45078;51.654;21.250;2023-08-24T05:47:15;18.10;99.90
59311;DHT22;45078;51.654;21.250;2023-08-24T05:49:41;18.50;99.90
59311;DHT22;45078;51.654;21.250;2023-08-24T05:52:07;18.80;99.90
59311;DHT22;45078;51.654;21.250;2023-08-24T05:54:33;19.30;99.90
59311;DHT22;45078;51.654;21.250;2023-08-24T05:56:58;19.60;99.90
59311;DHT22;45078;51.654;21.250;2023-08-24T05:59:27;19.80;99.90
59311;DHT22;45078;51.654;21.250;2023-08-24T06:01:53;20.00;99.90
59311;DHT22;45078;51.654;21.250;2023-08-24T06:04:18;20.00;99.90
59311;DHT22;45078;51.654;21.250;2023-08-24T06:06:45;20.30;99.90
59311;DHT22;45078;51.654;21.250;2023-08-24T06:09:10;20.30;99.90
59311;DHT22;45078;51.654;21.250;2023-08-24T06:11:36;20.50;99.90
59311;DHT22;45078;51.654;21.250;2023-08-24T06:14:03;20.60;99.90
59311;DHT22;45078;51.654;21.250;2023-08-24T06:16:29;20.70;99.90
59311;DHT22;45078;51.654;21.250;2023-08-24T06:18:55;20.90;99.90
59311;DHT22;45078;51.654;21.250;2023-08-24T06:21:21;21.00;99.90
59311;DHT22;45078;51.654;21.250;2023-08-24T06:23:46;21.10;99.90
59311;DHT22;45078;51.654;21.250;2023-08-24T06:26:13;21.30;99.90
59311;DHT22;45078;51.654;21.250;2023-08-24T06:28:39;21.50;99.90
59311;DHT22;45078;51.654;21.250;2023-08-24T06:31:05;21.70;99.90
59311;DHT22;45078;51.654;21.250;2023-08-24T06:33:34;21.80;99.90
59311;DHT22;45078;51.654;21.250;2023-08-24T06:36:01;21.90;99.90
59311;DHT22;45078;51.654;21.250;2023-08-24T06:38:28;22.00;99.90
59311;DHT22;45078;51.654;21.250;2023-08-24T06:40:54;22.00;99.90
59311;DHT22;45078;51.654;21.250;2023-08-24T06:43:20;22.10;99.90
59311;DHT22;45078;51.654;21.250;2023-08-24T06:45:46;22.20;99.90
59311;DHT22;45078;51.654;21.250;2023-08-24T06:48:12;22.20;99.90
59311;DHT22;45078;51.654;21.250;2023-08-24T06:50:38;22.20;99.90
59311;DHT22;45078;51.654;21.250;2023-08-24T06:53:04;22.30;99.90
59311;DHT22;45078;51.654;21.250;2023-08-24T06:55:29;22.30;99.90
59311;DHT22;45078;51.654;21.250;2023-08-24T06:57:55;22.30;99.90
59311;DHT22;45078;51.654;21.250;2023-08-24T07:00:22;22.40;99.90
59311;DHT22;45078;51.654;21.250;2023-08-24T07:02:49;22.40;99.90
59311;DHT22;45078;51.654;21.250;2023-08-24T07:05:15;22.50;99.90
59311;DHT22;45078;51.654;21.250;2023-08-24T07:07:45;22.70;99.90
59311;DHT22;45078;51.654;21.250;2023-08-24T07:10:11;22.80;99.90
59311;DHT22;45078;51.654;21.250;2023-08-24T07:12:37;22.90;99.90
59311;DHT22;45078;51.654;21.250;2023-08-24T07:15:06;23.00;99.90
59311;DHT22;45078;51.654;21.250;2023-08-24T07:17:32;23.00;99.90
59311;DHT22;45078;51.654;21.250;2023-08-24T07:19:58;23.10;99.90
59311;DHT22;45078;51.654;21.250;2023-08-24T07:22:24;23.10;99.90
59311;DHT22;45078;51.654;21.250;2023-08-24T07:24:52;23.10;99.90
59311;DHT22;45078;51.654;21.250;2023-08-24T07:27:18;23.20;99.90
59311;DHT22;45078;51.654;21.250;2023-08-24T07:29:44;23.20;99.90
59311;DHT22;45078;51.654;21.250;2023-08-24T07:32:10;23.30;99.90
59311;DHT22;45078;51.654;21.250;2023-08-24T07:34:36;23.40;99.90
59311;DHT22;45078;51.654;21.250;2023-08-24T07:37:01;23.50;99.90
59311;DHT22;45078;51.654;21.250;2023-08-24T07:39:27;23.70;99.90
59311;DHT22;45078;51.654;21.250;2023-08-24T07:41:53;23.70;99.90
59311;DHT22;45078;51.654;21.250;2023-08-24T07:44:19;23.70;99.90
59311;DHT22;45078;51.654;21.250;2023-08-24T07:46:45;23.80;99.90
59311;DHT22;45078;51.654;21.250;2023-08-24T07:49:10;24.00;99.90
59311;DHT22;45078;51.654;21.250;2023-08-24T07:51:36;24.00;99.90
59311;DHT22;45078;51.654;21.250;2023-08-24T07:54:02;24.10;99.90
59311;DHT22;45078;51.654;21.250;2023-08-24T07:56:30;24.20;99.90
59311;DHT22;45078;51.654;21.250;2023-08-24T07:58:56;24.30;99.90
59311;DHT22;45078;51.654;21.250;2023-08-24T08:01:21;24.30;99.90
59311;DHT22;45078;51.654;21.250;2023-08-24T08:03:47;24.40;99.90
59311;DHT22;45078;51.654;21.250;2023-08-24T08:06:13;24.50;99.90
59311;DHT22;45078;51.654;21.250;2023-08-24T08:08:39;24.50;99.90
59311;DHT22;45078;51.654;21.250;2023-08-24T08:11:05;24.60;99.90
59311;DHT22;45078;51.654;21.250;2023-08-24T08:13:31;24.70;99.60
59311;DHT22;45078;51.654;21.250;2023-08-24T08:16:04;24.80;99.90
59311;DHT22;45078;51.654;21.250;2023-08-24T08:18:31;24.90;99.90
59311;DHT22;45078;51.654;21.250;2023-08-24T08:20:58;25.00;99.90
59311;DHT22;45078;51.654;21.250;2023-08-24T08:23:23;25.00;98.90
59311;DHT22;45078;51.654;21.250;2023-08-24T08:25:49;25.00;99.00
59311;DHT22;45078;51.654;21.250;2023-08-24T08:28:16;25.20;94.90
59311;DHT22;45078;51.654;21.250;2023-08-24T08:30:43;25.20;98.60
59311;DHT22;45078;51.654;21.250;2023-08-24T08:33:09;25.20;99.90
59311;DHT22;45078;51.654;21.250;2023-08-24T08:35:35;25.10;99.30
59311;DHT22;45078;51.654;21.250;2023-08-24T08:38:01;25.30;95.60
59311;DHT22;45078;51.654;21.250;2023-08-24T08:40:30;25.30;99.40
59311;DHT22;45078;51.654;21.250;2023-08-24T08:42:57;25.30;99.90
59311;DHT22;45078;51.654;21.250;2023-08-24T08:45:25;25.30;97.00
59311;DHT22;45078;51.654;21.250;2023-08-24T08:47:59;25.40;99.20
59311;DHT22;45078;51.654;21.250;2023-08-24T08:50:25;25.40;98.50
59311;DHT22;45078;51.654;21.250;2023-08-24T08:52:51;25.30;98.90
59311;DHT22;45078;51.654;21.250;2023-08-24T08:55:18;25.20;99.50
59311;DHT22;45078;51.654;21.250;2023-08-24T08:57:45;25.30;99.00
59311;DHT22;45078;51.654;21.250;2023-08-24T09:00:12;25.40;97.50
59311;DHT22;45078;51.654;21.250;2023-08-24T09:02:43;25.50;99.00
59311;DHT22;45078;51.654;21.250;2023-08-24T09:05:10;25.60;97.90
59311;DHT22;45078;51.654;21.250;2023-08-24T09:07:39;25.70;97.40
59311;DHT22;45078;51.654;21.250;2023-08-24T09:10:05;25.60;97.00
59311;DHT22;45078;51.654;21.250;2023-08-24T09:12:33;25.70;99.20
59311;DHT22;45078;51.654;21.250;2023-08-24T09:14:59;25.80;97.50
59311;DHT22;45078;51.654;21.250;2023-08-24T09:17:25;25.90;94.30
59311;DHT22;45078;51.654;21.250;2023-08-24T09:19:53;25.90;96.10
59311;DHT22;45078;51.654;21.250;2023-08-24T09:22:19;26.10;95.30
59311;DHT22;45078;51.654;21.250;2023-08-24T09:24:45;26.30;95.00
59311;DHT22;45078;51.654;21.250;2023-08-24T09:27:16;26.40;89.80
59311;DHT22;45078;51.654;21.250;2023-08-24T09:29:42;26.40;95.30
59311;DHT22;45078;51.654;21.250;2023-08-24T09:32:08;26.40;88.90
59311;DHT22;45078;51.654;21.250;2023-08-24T09:34:36;26.50;90.60
59311;DHT22;45078;51.654;21.250;2023-08-24T09:37:02;26.50;93.50
59311;DHT22;45078;51.654;21.250;2023-08-24T09:39:29;26.40;94.90
59311;DHT22;45078;51.654;21.250;2023-08-24T09:42:00;26.40;87.80
59311;DHT22;45078;51.654;21.250;2023-08-24T09:44:30;26.40;90.50
59311;DHT22;45078;51.654;21.250;2023-08-24T09:46:55;26.20;88.10
59311;DHT22;45078;51.654;21.250;2023-08-24T09:49:21;26.20;84.60
59311;DHT22;45078;51.654;21.250;2023-08-24T09:51:48;26.00;91.70
59311;DHT22;45078;51.654;21.250;2023-08-24T09:54:16;25.90;93.60
59311;DHT22;45078;51.654;21.250;2023-08-24T09:56:42;26.00;93.20
59311;DHT22;45078;51.654;21.250;2023-08-24T09:59:12;26.10;93.40
59311;DHT22;45078;51.654;21.250;2023-08-24T10:01:44;26.20;95.50
59311;DHT22;45078;51.654;21.250;2023-08-24T10:04:21;26.50;91.00
59311;DHT22;45078;51.654;21.250;2023-08-24T10:06:50;26.60;88.90
59311;DHT22;45078;51.654;21.250;2023-08-24T10:09:22;26.70;92.70
59311;DHT22;45078;51.654;21.250;2023-08-24T10:11:55;26.90;89.40
59311;DHT22;45078;51.654;21.250;2023-08-24T10:17:26;26.70;84.60
59311;DHT22;45078;51.654;21.250;2023-08-24T10:22:34;26.70;85.10
59311;DHT22;45078;51.654;21.250;2023-08-24T10:25:01;26.80;90.70
59311;DHT22;45078;51.654;21.250;2023-08-24T10:27:28;26.80;90.10
59311;DHT22;45078;51.654;21.250;2023-08-24T10:29:55;26.80;89.60
59311;DHT22;45078;51.654;21.250;2023-08-24T10:32:22;26.60;90.40
59311;DHT22;45078;51.654;21.250;2023-08-24T10:34:49;26.70;88.50
59311;DHT22;45078;51.654;21.250;2023-08-24T10:37:15;26.80;86.90
59311;DHT22;45078;51.654;21.250;2023-08-24T10:39:46;26.80;83.20
59311;DHT22;45078;51.654;21.250;2023-08-24T10:42:13;26.60;89.50
59311;DHT22;45078;51.654;21.250;2023-08-24T10:44:43;26.40;86.20
59311;DHT22;45078;51.654;21.250;2023-08-24T10:49:43;26.60;89.10
59311;DHT22;45078;51.654;21.250;2023-08-24T10:52:25;26.80;80.60
59311;DHT22;45078;51.654;21.250;2023-08-24T10:54:53;26.80;85.00
59311;DHT22;45078;51.654;21.250;2023-08-24T10:57:23;26.60;82.00
59311;DHT22;45078;51.654;21.250;2023-08-24T11:00:08;26.70;83.20
59311;DHT22;45078;51.654;21.250;2023-08-24T11:02:45;26.50;84.10
59311;DHT22;45078;51.654;21.250;2023-08-24T11:05:25;26.50;87.10
59311;DHT22;45078;51.654;21.250;2023-08-24T11:08:04;26.70;84.80
59311;DHT22;45078;51.654;21.250;2023-08-24T11:13:10;27.00;82.30
59311;DHT22;45078;51.654;21.250;2023-08-24T11:15:40;26.90;80.60
59311;DHT22;45078;51.654;21.250;2023-08-24T11:18:25;27.00;79.10
59311;DHT22;45078;51.654;21.250;2023-08-24T11:20:56;26.90;87.60
59311;DHT22;45078;51.654;21.250;2023-08-24T11:23:25;26.80;83.90
59311;DHT22;45078;51.654;21.250;2023-08-24T11:25:53;26.80;86.00
59311;DHT22;45078;51.654;21.250;2023-08-24T11:28:23;26.80;91.10
59311;DHT22;45078;51.654;21.250;2023-08-24T11:30:49;27.00;81.60
59311;DHT22;45078;51.654;21.250;2023-08-24T11:33:16;27.10;77.10
59311;DHT22;45078;51.654;21.250;2023-08-24T11:35:46;27.10;79.20
59311;DHT22;45078;51.654;21.250;2023-08-24T11:38:11;27.20;79.20
59311;DHT22;45078;51.654;21.250;2023-08-24T11:40:38;27.00;76.80
59311;DHT22;45078;51.654;21.250;2023-08-24T11:43:04;26.70;79.30
59311;DHT22;45078;51.654;21.250;2023-08-24T11:45:35;26.70;78.60
59311;DHT22;45078;51.654;21.250;2023-08-24T11:48:03;26.70;80.10
59311;DHT22;45078;51.654;21.250;2023-08-24T11:50:30;26.60;82.50
59311;DHT22;45078;51.654;21.250;2023-08-24T11:52:56;26.50;83.50
59311;DHT22;45078;51.654;21.250;2023-08-24T11:55:23;26.40;84.60
59311;DHT22;45078;51.654;21.250;2023-08-24T11:57:50;26.40;90.20
59311;DHT22;45078;51.654;21.250;2023-08-24T12:00:18;26.50;90.40
59311;DHT22;45078;51.654;21.250;2023-08-24T12:02:45;26.60;90.30
59311;DHT22;45078;51.654;21.250;2023-08-24T12:05:24;26.50;87.80
59311;DHT22;45078;51.654;21.250;2023-08-24T12:07:54;26.60;87.40
59311;DHT22;45078;51.654;21.250;2023-08-24T12:10:20;26.60;85.90
59311;DHT22;45078;51.654;21.250;2023-08-24T12:12:46;26.60;88.80
59311;DHT22;45078;51.654;21.250;2023-08-24T12:15:17;26.50;83.70
59311;DHT22;45078;51.654;21.250;2023-08-24T12:17:44;26.50;87.30
59311;DHT22;45078;51.654;21.250;2023-08-24T12:20:20;26.50;88.80
59311;DHT22;45078;51.654;21.250;2023-08-24T12:22:55;26.50;85.40
59311;DHT22;45078;51.654;21.250;2023-08-24T12:25:25;26.70;86.20
59311;DHT22;45078;51.654;21.250;2023-08-24T12:28:09;26.90;83.70
59311;DHT22;45078;51.654;21.250;2023-08-24T12:30:49;27.00;82.00
59311;DHT22;45078;51.654;21.250;2023-08-24T12:35:47;26.90;82.40
59311;DHT22;45078;51.654;21.250;2023-08-24T12:38:13;27.00;82.80
59311;DHT22;45078;51.654;21.250;2023-08-24T12:40:38;27.30;79.10
59311;DHT22;45078;51.654;21.250;2023-08-24T12:43:04;27.40;82.90
59311;DHT22;45078;51.654;21.250;2023-08-24T12:45:31;27.60;83.10
59311;DHT22;45078;51.654;21.250;2023-08-24T12:47:57;27.40;81.90
59311;DHT22;45078;51.654;21.250;2023-08-24T12:50:22;27.20;80.10
59311;DHT22;45078;51.654;21.250;2023-08-24T12:52:48;27.10;81.60
59311;DHT22;45078;51.654;21.250;2023-08-24T12:55:15;26.90;81.90
59311;DHT22;45078;51.654;21.250;2023-08-24T12:57:41;26.80;78.20
59311;DHT22;45078;51.654;21.250;2023-08-24T13:00:07;27.00;78.90
59311;DHT22;45078;51.654;21.250;2023-08-24T13:02:34;27.20;78.80
59311;DHT22;45078;51.654;21.250;2023-08-24T13:05:00;27.50;76.50
59311;DHT22;45078;51.654;21.250;2023-08-24T13:07:29;27.60;75.60
59311;DHT22;45078;51.654;21.250;2023-08-24T13:09:55;27.60;73.90
59311;DHT22;45078;51.654;21.250;2023-08-24T13:12:20;27.60;74.30
59311;DHT22;45078;51.654;21.250;2023-08-24T13:14:47;27.80;74.40
59311;DHT22;45078;51.654;21.250;2023-08-24T13:17:12;27.80;71.50
59311;DHT22;45078;51.654;21.250;2023-08-24T13:19:38;27.90;74.30
59311;DHT22;45078;51.654;21.250;2023-08-24T13:22:04;28.20;72.70
59311;DHT22;45078;51.654;21.250;2023-08-24T13:24:30;28.50;72.70
59311;DHT22;45078;51.654;21.250;2023-08-24T13:26:55;28.70;70.10
59311;DHT22;45078;51.654;21.250;2023-08-24T13:29:21;28.60;69.30
59311;DHT22;45078;51.654;21.250;2023-08-24T13:31:47;28.40;69.90
59311;DHT22;45078;51.654;21.250;2023-08-24T13:34:13;28.30;71.10
59311;DHT22;45078;51.654;21.250;2023-08-24T13:36:39;28.70;70.70
59311;DHT22;45078;51.654;21.250;2023-08-24T13:39:04;28.90;70.10
59311;DHT22;45078;51.654;21.250;2023-08-24T13:41:30;29.10;71.70
59311;DHT22;45078;51.654;21.250;2023-08-24T13:43:56;29.00;72.50
59311;DHT22;45078;51.654;21.250;2023-08-24T13:46:22;29.00;72.20
59311;DHT22;45078;51.654;21.250;2023-08-24T13:48:47;29.00;72.10
59311;DHT22;45078;51.654;21.250;2023-08-24T13:51:13;29.50;69.00
59311;DHT22;45078;51.654;21.250;2023-08-24T13:53:39;29.90;67.50
59311;DHT22;45078;51.654;21.250;2023-08-24T13:56:05;29.60;69.40
59311;DHT22;45078;51.654;21.250;2023-08-24T13:58:31;29.40;71.90
59311;DHT22;45078;51.654;21.250;2023-08-24T14:00:58;29.00;72.10
59311;DHT22;45078;51.654;21.250;2023-08-24T14:03:23;28.70;70.70
59311;DHT22;45078;51.654;21.250;2023-08-24T14:05:49;28.30;71.80
59311;DHT22;45078;51.654;21.250;2023-08-24T14:08:19;28.00;73.20
59311;DHT22;45078;51.654;21.250;2023-08-24T14:10:45;27.80;74.30
59311;DHT22;45078;51.654;21.250;2023-08-24T14:13:14;27.60;74.70
59311;DHT22;45078;51.654;21.250;2023-08-24T14:15:40;28.70;74.40
59311;DHT22;45078;51.654;21.250;2023-08-24T14:18:05;29.30;71.00
59311;DHT22;45078;51.654;21.250;2023-08-24T14:20:31;30.30;70.20
59311;DHT22;45078;51.654;21.250;2023-08-24T14:22:57;31.80;66.80
59311;DHT22;45078;51.654;21.250;2023-08-24T14:25:23;32.70;63.40
59311;DHT22;45078;51.654;21.250;2023-08-24T14:27:48;33.70;62.00
59311;DHT22;45078;51.654;21.250;2023-08-24T14:30:14;34.00;59.80
59311;DHT22;45078;51.654;21.250;2023-08-24T14:32:40;33.80;59.10
59311;DHT22;45078;51.654;21.250;2023-08-24T14:35:06;33.80;58.70
59311;DHT22;45078;51.654;21.250;2023-08-24T14:37:33;33.70;59.00
59311;DHT22;45078;51.654;21.250;2023-08-24T14:39:59;33.40;59.90
59311;DHT22;45078;51.654;21.250;2023-08-24T14:42:25;33.10;59.20
59311;DHT22;45078;51.654;21.250;2023-08-24T14:44:50;32.30;60.00
59311;DHT22;45078;51.654;21.250;2023-08-24T14:47:16;31.40;62.50
59311;DHT22;45078;51.654;21.250;2023-08-24T14:49:42;30.20;64.50
59311;DHT22;45078;51.654;21.250;2023-08-24T14:52:07;29.50;66.30
59311;DHT22;45078;51.654;21.250;2023-08-24T14:54:33;29.00;69.60
59311;DHT22;45078;51.654;21.250;2023-08-24T14:56:59;29.00;72.70
59311;DHT22;45078;51.654;21.250;2023-08-24T14:59:25;29.80;68.90
59311;DHT22;45078;51.654;21.250;2023-08-24T15:01:51;30.30;66.80
59311;DHT22;45078;51.654;21.250;2023-08-24T15:04:18;31.20;66.80
59311;DHT22;45078;51.654;21.250;2023-08-24T15:06:44;32.20;64.90
59311;DHT22;45078;51.654;21.250;2023-08-24T15:09:09;32.20;62.70
59311;DHT22;45078;51.654;21.250;2023-08-24T15:11:36;32.20;62.30
59311;DHT22;45078;51.654;21.250;2023-08-24T15:14:02;32.90;59.10
59311;DHT22;45078;51.654;21.250;2023-08-24T15:16:27;32.40;60.90
59311;DHT22;45078;51.654;21.250;2023-08-24T15:18:53;31.60;63.00
59311;DHT22;45078;51.654;21.250;2023-08-24T15:21:19;30.90;65.80
59311;DHT22;45078;51.654;21.250;2023-08-24T15:23:44;30.30;65.60
59311;DHT22;45078;51.654;21.250;2023-08-24T15:26:10;29.60;67.10
59311;DHT22;45078;51.654;21.250;2023-08-24T15:28:38;29.20;69.30
59311;DHT22;45078;51.654;21.250;2023-08-24T15:31:22;29.50;69.00
59311;DHT22;45078;51.654;21.250;2023-08-24T15:33:48;29.60;69.20